createdAt,value
2019-01-30T00:01:05.766Z,48.30
2019-01-30T00:03:34.682Z,48.50
2019-01-30T00:06:03.420Z,48.70
2019-01-30T00:08:32.105Z,48.70
2019-01-30T00:11:00.811Z,48.60
2019-01-30T00:13:29.560Z,48.70
2019-01-30T00:16:01.405Z,48.50
2019-01-30T00:18:39.368Z,48.20
2019-01-30T00:21:08.128Z,48.00
2019-01-30T00:23:39.283Z,48.00
2019-01-30T00:26:08.132Z,48.10
2019-01-30T00:31:20.804Z,48.00
2019-01-30T00:33:49.601Z,48.00
2019-01-30T00:36:18.336Z,48.20
2019-01-30T00:38:56.192Z,47.90
2019-01-30T00:41:24.881Z,47.70
2019-01-30T00:43:53.620Z,47.60
2019-01-30T00:46:22.372Z,47.90
2019-01-30T00:49:00.362Z,47.40
2019-01-30T00:51:38.292Z,47.50
2019-01-30T00:54:11.583Z,47.30
2019-01-30T00:56:40.344Z,47.40
2019-01-30T00:59:09.289Z,47.70
2019-01-30T01:01:37.957Z,47.50
2019-01-30T01:04:06.798Z,47.60
2019-01-30T01:06:38.477Z,47.50
2019-01-30T01:09:09.941Z,47.10
2019-01-30T01:11:47.735Z,47.10
2019-01-30T01:14:16.496Z,47.10
2019-01-30T01:16:45.176Z,47.00
2019-01-30T01:19:13.927Z,47.00
2019-01-30T01:21:51.861Z,47.00
2019-01-30T01:24:20.666Z,46.90
2019-01-30T01:26:49.341Z,46.70
2019-01-30T01:29:18.027Z,47.10
2019-01-30T01:31:56.210Z,46.70
2019-01-30T01:34:24.919Z,46.80
2019-01-30T01:36:53.710Z,46.80
2019-01-30T01:39:22.376Z,47.10
2019-01-30T01:42:00.280Z,47.30
2019-01-30T01:44:29.381Z,47.20
2019-01-30T01:46:58.201Z,47.10
2019-01-30T01:49:27.185Z,47.20
2019-01-30T01:52:07.933Z,47.20
2019-01-30T01:54:36.890Z,47.30
2019-01-30T01:57:07.465Z,47.20
2019-01-30T01:59:36.405Z,46.70
2019-01-30T02:02:28.147Z,46.90
2019-01-30T02:04:58.181Z,46.80
2019-01-30T02:07:27.175Z,46.80
2019-01-30T02:09:56.149Z,46.60
2019-01-30T02:12:36.156Z,46.60
2019-01-30T02:15:06.497Z,46.50
2019-01-30T02:17:35.654Z,46.20
2019-01-30T02:20:07.114Z,46.30
2019-01-30T02:22:47.795Z,46.20
2019-01-30T02:25:16.545Z,46.00
2019-01-30T02:27:45.780Z,46.20
2019-01-30T02:30:19.897Z,46.20
2019-01-30T02:33:11.595Z,46.00
2019-01-30T02:35:40.429Z,46.10
2019-01-30T02:38:09.099Z,46.00
2019-01-30T02:40:37.821Z,46.00
2019-01-30T02:43:15.878Z,45.90
2019-01-30T02:45:47.831Z,46.00
2019-01-30T02:48:16.651Z,46.00
2019-01-30T02:51:00.767Z,45.90
2019-01-30T02:53:32.868Z,45.70
2019-01-30T02:56:01.552Z,46.00
2019-01-30T02:58:30.260Z,46.10
2019-01-30T03:01:08.100Z,46.00
2019-01-30T03:03:36.938Z,46.10
2019-01-30T03:06:05.656Z,46.20
2019-01-30T03:08:34.384Z,46.30
2019-01-30T03:11:13.245Z,46.70
2019-01-30T03:13:41.960Z,46.30
2019-01-30T03:16:11.106Z,46.40
2019-01-30T03:18:39.861Z,46.70
2019-01-30T03:21:17.829Z,46.60
2019-01-30T03:23:46.808Z,46.80
2019-01-30T03:26:15.559Z,47.00
2019-01-30T03:28:47.113Z,47.30
2019-01-30T03:31:31.484Z,47.30
2019-01-30T03:34:00.554Z,47.60
2019-01-30T03:36:30.989Z,47.40
2019-01-30T03:39:02.066Z,47.60
2019-01-30T03:41:39.971Z,47.70
2019-01-30T03:44:08.693Z,47.80
2019-01-30T03:46:37.391Z,47.90
2019-01-30T03:49:08.948Z,47.90
2019-01-30T03:51:47.039Z,48.10
2019-01-30T03:54:15.682Z,48.00
2019-01-30T03:56:45.757Z,47.60
2019-01-30T03:59:14.772Z,47.40
2019-01-30T04:01:52.780Z,47.40
2019-01-30T04:04:22.920Z,47.40
2019-01-30T04:06:51.687Z,47.50
2019-01-30T04:09:20.487Z,47.90
2019-01-30T04:12:10.329Z,47.60
2019-01-30T04:14:39.023Z,47.40
2019-01-30T04:17:07.691Z,47.90
2019-01-30T04:19:36.729Z,47.30
2019-01-30T04:22:15.575Z,47.30
2019-01-30T04:24:44.265Z,47.10
2019-01-30T04:27:14.673Z,46.90
2019-01-30T04:29:46.289Z,46.70
2019-01-30T04:32:24.290Z,46.60
2019-01-30T04:34:52.997Z,46.40
2019-01-30T04:37:22.149Z,46.50
2019-01-30T04:39:51.063Z,46.60
2019-01-30T04:42:29.081Z,46.90
2019-01-30T04:44:59.450Z,47.20
2019-01-30T04:47:28.360Z,47.40
2019-01-30T04:49:58.365Z,47.20
2019-01-30T04:52:39.277Z,47.10
2019-01-30T04:55:08.110Z,47.00
2019-01-30T04:57:38.096Z,46.80
2019-01-30T05:00:08.526Z,46.90
2019-01-30T05:02:46.313Z,46.80
2019-01-30T05:05:15.212Z,47.00
2019-01-30T05:07:46.290Z,46.60
2019-01-30T05:10:17.857Z,46.40
2019-01-30T05:12:56.181Z,46.20
2019-01-30T05:15:24.892Z,46.40
2019-01-30T05:17:53.603Z,46.30
2019-01-30T05:20:22.287Z,46.50
2019-01-30T05:22:53.773Z,47.10
2019-01-30T05:25:22.518Z,46.60
2019-01-30T05:27:54.433Z,46.40
2019-01-30T05:30:26.063Z,45.90
2019-01-30T05:33:04.127Z,45.70
2019-01-30T05:38:07.826Z,45.90
2019-01-30T05:40:37.189Z,45.90
2019-01-30T05:43:17.154Z,45.70
2019-01-30T05:45:45.928Z,46.00
2019-01-30T05:48:14.677Z,46.10
2019-01-30T05:50:43.485Z,46.00
2019-01-30T05:53:21.899Z,45.90
2019-01-30T05:55:53.153Z,45.80
2019-01-30T05:58:24.260Z,45.80
2019-01-30T06:00:52.951Z,45.50
2019-01-30T06:03:31.038Z,45.10
2019-01-30T06:06:02.004Z,44.80
2019-01-30T06:08:30.738Z,44.90
2019-01-30T06:10:59.421Z,44.90
2019-01-30T06:13:42.915Z,44.90
2019-01-30T06:16:11.648Z,44.90
2019-01-30T06:18:40.538Z,44.40
2019-01-30T06:21:09.496Z,43.90
2019-01-30T06:23:38.451Z,43.60
2019-01-30T06:26:07.128Z,43.70
2019-01-30T06:28:35.897Z,43.70
2019-01-30T06:31:05.321Z,43.70
2019-01-30T06:33:43.349Z,43.60
2019-01-30T06:36:12.035Z,43.20
2019-01-30T06:38:41.312Z,43.30
2019-01-30T06:41:10.307Z,43.20
2019-01-30T06:43:48.042Z,43.70
2019-01-30T06:46:17.009Z,43.30
2019-01-30T06:48:45.649Z,43.50
2019-01-30T06:51:14.539Z,43.30
2019-01-30T06:53:53.531Z,43.10
2019-01-30T06:56:25.245Z,43.30
2019-01-30T06:58:53.874Z,43.40
2019-01-30T07:01:22.806Z,43.40
2019-01-30T07:04:00.711Z,43.40
2019-01-30T07:06:29.628Z,43.10
2019-01-30T07:08:58.280Z,43.00
2019-01-30T07:11:26.965Z,42.80
2019-01-30T07:14:04.733Z,42.90
2019-01-30T07:16:33.462Z,43.30
2019-01-30T07:19:02.145Z,43.40
2019-01-30T07:24:18.571Z,44.00
2019-01-30T07:26:47.259Z,42.90
2019-01-30T07:29:15.969Z,43.40
2019-01-30T07:31:53.537Z,43.90
2019-01-30T07:34:25.659Z,43.90
2019-01-30T07:36:54.391Z,44.60
2019-01-30T07:39:23.384Z,44.20
2019-01-30T07:42:01.060Z,44.00
2019-01-30T07:44:30.332Z,43.40
2019-01-30T07:46:59.129Z,43.30
2019-01-30T07:49:27.841Z,42.70
2019-01-30T07:52:05.812Z,42.20
2019-01-30T07:54:34.473Z,42.20
2019-01-30T07:57:03.210Z,41.90
2019-01-30T07:59:32.157Z,41.60
2019-01-30T08:02:10.262Z,42.10
2019-01-30T08:04:39.203Z,43.00
2019-01-30T08:07:08.249Z,42.70
2019-01-30T08:09:37.045Z,42.90
2019-01-30T08:12:16.035Z,43.20
2019-01-30T08:14:45.086Z,43.10
2019-01-30T08:17:16.973Z,43.30
2019-01-30T08:19:45.633Z,43.30
2019-01-30T08:22:23.507Z,43.50
2019-01-30T08:24:52.203Z,43.20
2019-01-30T08:27:21.416Z,43.60
2019-01-30T08:29:50.489Z,43.60
2019-01-30T08:35:06.389Z,42.10
2019-01-30T08:37:38.609Z,41.80
2019-01-30T08:40:08.458Z,41.60
2019-01-30T08:42:46.166Z,41.70
2019-01-30T08:45:17.974Z,41.40
2019-01-30T08:47:46.628Z,41.40
2019-01-30T08:50:15.420Z,40.60
2019-01-30T08:52:53.557Z,41.00
2019-01-30T08:55:25.311Z,41.20
2019-01-30T08:57:54.152Z,41.20
2019-01-30T09:00:23.538Z,41.10
2019-01-30T09:05:39.549Z,40.20
2019-01-30T09:08:08.843Z,40.00
2019-01-30T09:10:38.110Z,39.60
2019-01-30T09:13:16.117Z,40.10
2019-01-30T09:15:44.872Z,39.70
2019-01-30T09:18:13.860Z,39.50
2019-01-30T09:20:45.143Z,39.40
2019-01-30T09:23:22.934Z,39.90
2019-01-30T09:25:53.517Z,39.50
2019-01-30T09:28:22.366Z,39.70
2019-01-30T09:30:54.145Z,40.40
2019-01-30T09:36:06.778Z,40.70
2019-01-30T09:38:36.436Z,41.20
2019-01-30T09:41:05.433Z,41.10
2019-01-30T09:43:43.656Z,40.90
2019-01-30T09:46:13.441Z,40.10
2019-01-30T09:48:42.192Z,40.20
2019-01-30T09:51:10.909Z,40.10
2019-01-30T09:53:48.683Z,39.30
2019-01-30T09:56:17.387Z,39.00
2019-01-30T09:58:46.197Z,39.30
2019-01-30T10:01:16.097Z,39.30
2019-01-30T10:03:53.850Z,38.60
2019-01-30T10:06:22.821Z,38.20
2019-01-30T10:08:54.868Z,37.30
2019-01-30T10:11:23.601Z,37.60
2019-01-30T10:14:02.284Z,37.40
2019-01-30T10:16:30.962Z,37.50
2019-01-30T10:18:59.672Z,37.20
2019-01-30T10:21:31.388Z,37.50
2019-01-30T10:24:09.638Z,36.90
2019-01-30T10:26:38.420Z,38.00
2019-01-30T10:29:07.497Z,38.30
2019-01-30T10:31:39.024Z,38.30
2019-01-30T10:34:16.955Z,38.20
2019-01-30T10:36:45.632Z,37.80
2019-01-30T10:39:14.507Z,38.30
2019-01-30T10:41:43.193Z,37.40
2019-01-30T10:44:21.041Z,36.30
2019-01-30T10:46:50.347Z,36.50
2019-01-30T10:49:19.432Z,36.50
2019-01-30T10:51:48.278Z,35.80
2019-01-30T10:54:26.552Z,36.00
2019-01-30T10:56:55.503Z,36.00
2019-01-30T10:59:26.664Z,35.70
2019-01-30T11:01:55.428Z,35.60
2019-01-30T11:04:33.633Z,35.80
2019-01-30T11:07:02.301Z,35.80
2019-01-30T11:09:30.999Z,35.80
2019-01-30T11:11:59.897Z,34.90
2019-01-30T11:14:50.297Z,34.70
2019-01-30T11:17:19.120Z,34.40
2019-01-30T11:19:47.863Z,33.10
2019-01-30T11:22:16.550Z,33.30
2019-01-30T11:24:55.732Z,33.60
2019-01-30T11:27:24.909Z,33.50
2019-01-30T11:29:53.596Z,32.00
2019-01-30T11:32:25.136Z,32.10
2019-01-30T11:37:37.646Z,30.20
2019-01-30T11:40:10.853Z,30.70
2019-01-30T11:42:39.565Z,31.30
2019-01-30T11:45:20.109Z,32.00
2019-01-30T11:47:48.825Z,32.40
2019-01-30T11:50:17.625Z,33.60
2019-01-30T11:52:46.354Z,34.00
2019-01-30T11:55:24.483Z,33.50
2019-01-30T11:57:53.422Z,32.40
2019-01-30T12:00:27.142Z,31.90
2019-01-30T12:02:55.918Z,30.90
2019-01-30T12:05:33.531Z,30.70
2019-01-30T12:08:02.517Z,31.00
2019-01-30T12:10:31.255Z,31.10
2019-01-30T12:13:01.600Z,31.30
2019-01-30T12:15:30.441Z,31.00
2019-01-30T12:18:01.775Z,30.80
2019-01-30T12:20:30.478Z,30.50
2019-01-30T12:23:00.250Z,30.00
2019-01-30T12:25:38.437Z,28.40
2019-01-30T12:28:07.303Z,27.40
2019-01-30T12:30:36.579Z,27.00
2019-01-30T12:33:07.756Z,27.20
2019-01-30T12:35:48.392Z,27.20
2019-01-30T12:38:17.049Z,28.90
2019-01-30T12:40:45.760Z,29.60
2019-01-30T12:43:14.818Z,30.00
2019-01-30T12:45:53.419Z,30.40
2019-01-30T12:48:23.672Z,31.30
2019-01-30T12:50:54.546Z,30.90
2019-01-30T12:53:23.276Z,31.30
2019-01-30T12:56:01.406Z,31.40
2019-01-30T12:58:30.108Z,31.50
2019-01-30T13:00:58.957Z,31.90
2019-01-30T13:03:27.750Z,32.30
2019-01-30T13:06:05.724Z,32.90
2019-01-30T13:08:35.786Z,33.30
2019-01-30T13:11:04.504Z,33.70
2019-01-30T13:13:33.306Z,34.20
2019-01-30T13:16:10.937Z,34.60
2019-01-30T13:18:39.801Z,34.70
2019-01-30T13:21:08.510Z,35.00
2019-01-30T13:23:38.884Z,35.10
2019-01-30T13:26:16.938Z,35.40
2019-01-30T13:28:45.673Z,35.30
2019-01-30T13:31:14.720Z,35.70
2019-01-30T13:33:46.096Z,36.30
2019-01-30T13:38:58.011Z,35.90
2019-01-30T13:41:26.775Z,37.10
2019-01-30T13:43:55.486Z,37.20
2019-01-30T13:46:33.469Z,37.10
2019-01-30T13:49:02.137Z,37.10
2019-01-30T13:51:30.959Z,37.60
2019-01-30T13:54:02.742Z,38.10
2019-01-30T13:56:40.866Z,38.10
2019-01-30T13:59:09.746Z,38.00
2019-01-30T14:01:38.516Z,37.90
2019-01-30T14:04:07.296Z,38.20
2019-01-30T14:06:45.240Z,38.30
2019-01-30T14:09:14.177Z,38.40
2019-01-30T14:11:43.055Z,38.40
2019-01-30T14:14:11.856Z,38.50
2019-01-30T14:19:23.773Z,38.20
2019-01-30T14:21:52.687Z,38.20
2019-01-30T14:24:21.720Z,38.30
2019-01-30T14:27:01.896Z,38.60
2019-01-30T14:29:30.639Z,38.60
2019-01-30T14:32:02.049Z,38.60
2019-01-30T14:34:30.857Z,38.50
2019-01-30T14:39:43.031Z,38.40
2019-01-30T14:42:11.988Z,38.10
2019-01-30T14:44:40.745Z,38.00
2019-01-30T14:47:18.468Z,37.70
2019-01-30T14:49:47.348Z,37.70
2019-01-30T14:52:18.843Z,37.80
2019-01-30T14:54:46.852Z,37.80
2019-01-30T14:57:27.877Z,37.90
2019-01-30T14:59:56.707Z,37.90
2019-01-30T15:02:25.554Z,37.90
2019-01-30T15:04:54.801Z,38.40
2019-01-30T15:07:32.969Z,37.70
2019-01-30T15:10:01.996Z,38.00
2019-01-30T15:12:30.939Z,37.30
2019-01-30T15:14:59.929Z,36.80
2019-01-30T15:17:38.092Z,36.00
2019-01-30T15:20:10.482Z,35.40
2019-01-30T15:22:39.341Z,35.80
2019-01-30T15:25:09.561Z,36.40
2019-01-30T15:27:47.405Z,35.70
2019-01-30T15:30:24.979Z,35.20
2019-01-30T15:32:54.043Z,35.10
2019-01-30T15:35:33.275Z,35.00
2019-01-30T15:38:07.741Z,35.20
2019-01-30T15:40:37.022Z,36.00
2019-01-30T15:43:05.812Z,35.60
2019-01-30T15:45:35.561Z,36.10
2019-01-30T15:48:13.376Z,35.80
2019-01-30T15:50:43.067Z,35.60
2019-01-30T15:53:15.100Z,35.80
2019-01-30T15:55:44.096Z,36.00
2019-01-30T15:58:22.097Z,36.10
2019-01-30T16:01:15.435Z,35.90
2019-01-30T16:03:45.380Z,35.80
2019-01-30T16:06:17.136Z,36.20
2019-01-30T16:08:55.169Z,36.70
2019-01-30T16:11:24.606Z,36.10
2019-01-30T16:13:53.424Z,36.40
2019-01-30T16:16:23.248Z,36.00
2019-01-30T16:19:00.881Z,35.90
2019-01-30T16:21:30.048Z,35.50
2019-01-30T16:24:02.107Z,35.50
2019-01-30T16:26:30.920Z,35.10
2019-01-30T16:32:41.282Z,35.10
2019-01-30T16:35:12.367Z,35.40
2019-01-30T16:37:52.582Z,35.60
2019-01-30T16:40:22.804Z,35.60
2019-01-30T16:42:54.423Z,35.20
2019-01-30T16:45:25.117Z,35.50
2019-01-30T16:48:03.048Z,35.80
2019-01-30T16:50:34.330Z,35.90
2019-01-30T16:53:02.561Z,36.30
2019-01-30T16:55:31.585Z,36.20
2019-01-30T17:00:46.742Z,37.00
2019-01-30T17:03:15.831Z,37.40
2019-01-30T17:05:44.911Z,38.00
2019-01-30T17:08:23.309Z,38.50
2019-01-30T17:10:52.369Z,39.00
2019-01-30T17:13:21.382Z,39.50
2019-01-30T17:15:51.389Z,39.90
2019-01-30T17:18:30.410Z,40.10
2019-01-30T17:21:00.871Z,40.50
2019-01-30T17:23:33.160Z,41.10
2019-01-30T17:26:01.863Z,41.30
2019-01-30T17:28:39.914Z,41.60
2019-01-30T17:31:15.545Z,41.60
2019-01-30T17:33:47.375Z,41.60
2019-01-30T17:36:18.583Z,41.60
2019-01-30T17:38:55.614Z,41.90
2019-01-30T17:41:24.301Z,41.90
2019-01-30T17:43:56.270Z,41.70
2019-01-30T17:46:27.823Z,42.10
2019-01-30T17:49:04.641Z,42.30
2019-01-30T17:51:33.657Z,42.60
2019-01-30T17:54:02.702Z,42.10
2019-01-30T17:56:31.527Z,42.00
2019-01-30T18:01:44.226Z,42.30
2019-01-30T18:04:13.453Z,42.20
2019-01-30T18:06:43.343Z,42.10
2019-01-30T18:09:21.701Z,42.80
2019-01-30T18:11:50.760Z,43.00
2019-01-30T18:14:19.521Z,42.70
2019-01-30T18:16:48.305Z,42.40
2019-01-30T18:22:01.720Z,42.80
2019-01-30T18:24:30.499Z,43.30
2019-01-30T18:27:02.246Z,43.20
2019-01-30T18:29:31.238Z,43.20
2019-01-30T18:32:03.035Z,43.20
2019-01-30T18:34:31.740Z,43.40
2019-01-30T18:37:00.636Z,43.70
2019-01-30T18:39:38.597Z,43.50
2019-01-30T18:42:07.902Z,43.50
2019-01-30T18:44:37.183Z,43.60
2019-01-30T18:47:05.979Z,42.90
2019-01-30T18:49:43.737Z,42.80
2019-01-30T18:52:12.461Z,42.90
2019-01-30T18:54:41.164Z,43.30
2019-01-30T18:57:10.053Z,42.90
2019-01-30T19:00:00.588Z,42.90
2019-01-30T19:02:31.070Z,42.70
2019-01-30T19:05:01.958Z,43.20
2019-01-30T19:07:30.790Z,43.70
2019-01-30T19:10:10.984Z,43.80
2019-01-30T19:12:39.955Z,43.70
2019-01-30T19:15:12.786Z,43.50
2019-01-30T19:17:41.849Z,43.00
2019-01-30T19:20:22.076Z,42.80
2019-01-30T19:22:51.194Z,42.90
2019-01-30T19:25:20.480Z,43.60
2019-01-30T19:27:49.173Z,43.60
2019-01-30T19:30:29.020Z,44.10
2019-01-30T19:32:57.818Z,44.40
2019-01-30T19:35:26.555Z,45.40
2019-01-30T19:37:55.800Z,45.50
2019-01-30T19:40:33.839Z,45.60
2019-01-30T19:43:02.937Z,45.50
2019-01-30T19:45:31.721Z,45.90
2019-01-30T19:48:02.495Z,46.50
2019-01-30T19:50:40.149Z,46.70
2019-01-30T19:53:09.425Z,47.50
2019-01-30T19:55:38.147Z,47.40
2019-01-30T19:58:12.214Z,47.00
2019-01-30T20:01:01.354Z,46.30
2019-01-30T20:03:32.366Z,45.30
2019-01-30T20:06:01.562Z,44.70
2019-01-30T20:08:30.692Z,43.80
2019-01-30T20:11:08.972Z,43.80
2019-01-30T20:13:40.349Z,43.60
2019-01-30T20:16:09.206Z,43.30
2019-01-30T20:18:40.705Z,42.80
2019-01-30T20:21:18.957Z,43.10
2019-01-30T20:23:48.376Z,43.30
2019-01-30T20:26:17.138Z,43.30
2019-01-30T20:28:46.182Z,43.10
2019-01-30T20:31:23.856Z,42.80
2019-01-30T20:33:53.091Z,43.10
2019-01-30T20:36:24.995Z,42.90
2019-01-30T20:38:53.679Z,43.00
2019-01-30T20:41:31.807Z,43.10
2019-01-30T20:44:00.593Z,42.90
2019-01-30T20:46:30.793Z,43.10
2019-01-30T20:49:01.153Z,43.60
2019-01-30T20:51:39.138Z,43.30
2019-01-30T20:54:08.065Z,43.30
2019-01-30T20:56:36.977Z,43.70
2019-01-30T20:59:06.687Z,43.30
2019-01-30T21:04:23.161Z,43.20
2019-01-30T21:06:53.078Z,43.70
2019-01-30T21:09:22.187Z,43.90
2019-01-30T21:12:01.331Z,44.20
2019-01-30T21:14:30.323Z,44.10
2019-01-30T21:17:01.232Z,43.50
2019-01-30T21:19:30.042Z,43.50
2019-01-30T21:22:07.878Z,43.50
2019-01-30T21:24:36.800Z,43.40
2019-01-30T21:27:06.035Z,43.30
2019-01-30T21:29:34.731Z,43.10
2019-01-30T21:32:16.463Z,43.10
2019-01-30T21:34:46.080Z,42.90
2019-01-30T21:37:15.400Z,43.10
2019-01-30T21:39:47.182Z,42.50
2019-01-30T21:42:28.718Z,42.40
2019-01-30T21:44:57.407Z,42.40
2019-01-30T21:47:26.356Z,42.40
2019-01-30T21:49:55.145Z,42.00
2019-01-30T21:52:33.339Z,41.20
2019-01-30T21:55:02.992Z,40.60
2019-01-30T21:57:32.117Z,41.00
2019-01-30T22:00:01.202Z,40.50
2019-01-30T22:02:40.034Z,41.00
2019-01-30T22:05:08.852Z,41.10
2019-01-30T22:07:39.249Z,41.10
2019-01-30T22:10:10.223Z,41.50
2019-01-30T22:12:48.281Z,42.20
2019-01-30T22:15:17.717Z,42.80
2019-01-30T22:17:46.733Z,43.00
2019-01-30T22:20:17.917Z,43.10
2019-01-30T22:25:22.479Z,43.00
2019-01-30T22:27:51.297Z,43.00
2019-01-30T22:30:22.388Z,42.80
2019-01-30T22:33:01.700Z,42.70
2019-01-30T22:35:30.584Z,43.10
2019-01-30T22:37:59.528Z,42.90
2019-01-30T22:40:28.206Z,42.90
2019-01-30T22:43:06.939Z,42.60
2019-01-30T22:45:37.182Z,42.90
2019-01-30T22:48:06.696Z,42.70
2019-01-30T22:50:37.932Z,43.00
2019-01-30T22:53:18.907Z,42.80
2019-01-30T22:55:47.882Z,42.50
2019-01-30T22:58:16.986Z,42.40
2019-01-30T23:01:23.618Z,42.30
2019-01-30T23:07:14.276Z,42.20
2019-01-30T23:10:21.020Z,42.10
2019-01-30T23:16:43.364Z,42.70
2019-01-30T23:19:26.640Z,42.70
2019-01-30T23:22:24.107Z,42.60
2019-01-30T23:25:33.439Z,42.70
2019-01-30T23:28:12.470Z,42.90
2019-01-30T23:31:01.650Z,43.10
2019-01-30T23:34:07.088Z,43.00
2019-01-30T23:37:22.012Z,43.20
2019-01-30T23:40:37.414Z,42.90
2019-01-30T23:43:28.898Z,43.00
2019-01-30T23:46:30.022Z,42.50
2019-01-30T23:49:40.973Z,42.30
2019-01-30T23:52:47.354Z,42.30
2019-01-30T23:56:15.663Z,41.70
2019-01-30T23:59:15.939Z,41.60
